Nearby METAR Reports

 

KSJC - San Jose, California, USA
Distance from station: NE 14km
Updated: 27/07/2017 07:53
Clear
Clear
 Wind from WNW
Wind: WNW 15 km/h
Temperature: 26°C
Dew Point: 16°C
Humidity: 54%
Barometer: 1015.6 hPa
Clouds: Clear
Visibility: 16 km
2017/07/26 21:53 KSJC 262153Z 29008KT 10SM CLR 26/16 A2999 RMK AO2 SLP156 T02610156
KNUQ - Moffett Nas/Mtn, California, USA
Distance from station: N 14km
Updated: 27/07/2017 07:56
Clear
Clear
 Wind from NNW
Wind: NNW 15 km/h
Temperature: 24°C
Dew Point: 15°C
Humidity: 57%
Barometer: 1016.3 hPa
Clouds: Clear
Visibility: 16 km
2017/07/26 21:56 KNUQ 262156Z 34008KT 10SM CLR 24/15 A3001 RMK AO2 SLP163 T02390150
KPAO - Palo Alto, California, USA
Distance from station: NNW 23km
Updated: 27/07/2017 07:47
Clear
Clear
 Wind from N
Wind: N 17 km/h
Temperature: 24°C
Dew Point: 17°C
Humidity: 65%
Barometer: 1016.3 hPa
Clouds: Clear
Visibility: 16 km
2017/07/26 21:47 KPAO 262147Z 35009KT 10SM SKC 24/17 A3001
 
KRHV - San Jose/Reid, California, USA
Distance from station: ENE 19km
Updated: 27/07/2017 07:55
Clear
Clear
 Wind from NNW
Wind: NNW 15 km/h
Temperature: 28°C
Heat Index: 28°C
Dew Point: 14°C
Humidity: 42%
Barometer: 1016.3 hPa
Clouds: Clear
Visibility: 16 km
2017/07/26 21:55 KRHV 262155Z 33008KT 10SM SKC 28/14 A3001
KOAK - Oakland, California, USA
Distance from station: NNW 50km
Updated: 27/07/2017 07:53
Clear
Clear
 Wind from WNW
Wind: WNW 24 km/h
Temperature: 21°C
Dew Point: 13°C
Humidity: 60%
Barometer: 1016.3 hPa
Clouds: Clear
Visibility: 16 km
2017/07/26 21:53 KOAK 262153Z 29013KT 10SM CLR 21/13 A3001 RMK AO2 SLP162 T02110133
KSQL - San Carlos Airpo, California, USA
Distance from station: NW 34km
Updated: 26/07/2017 23:50
NOT Current
Overcast
Overcast
 Wind from N
Wind: N 6 km/h
Temperature: 17°C
Dew Point: 14°C
Humidity: 83%
Barometer: 1017.3 hPa
Clouds: Overcast
Visibility: 16 km
Cloud details: Overcast 366 m
2017/07/26 13:50 KSQL 261350Z AUTO 01003KT 10SM OVC012 17/14 A3004 RMK AO2
 
KSFO - San Francisco, California, USA
Distance from station: NW 49km
Updated: 27/07/2017 07:56
Few Clouds
Few Clouds
 Wind from WNW
Wind: WNW 33 km/h
Temperature: 23°C
Dew Point: 13°C
Humidity: 53%
Barometer: 1015.9 hPa
Clouds: Few Clouds
Visibility: 16 km
Cloud details: Few Clouds 366 m
2017/07/26 21:56 KSFO 262156Z 30018KT 10SM FEW012 23/13 A3000 RMK AO2 SLP159 T02280128 $
KE16 - San Martin, California, USA
Distance from station: ESE 43km
Updated: 27/07/2017 08:35
Light rain, Clear
Light rain, Clear
 Wind from NW
Wind: NW 11 km/h
Temperature: 31°C
Dew Point: 13°C
Humidity: 33%
Barometer: 1015.2 hPa
Summary: Light rain
Clouds: Clear
Visibility: 16 km
2017/07/26 22:35 KE16 262235Z AUTO 31006KT 10SM -RA CLR 31/13 A2998 RMK AO2
KWVI - Watsonville, California, USA
Distance from station: SSE 44km
Updated: 27/07/2017 07:53
Clear
Clear
 Wind from SW
Wind: SW 15 km/h
Temperature: 20°C
Dew Point: 14°C
Humidity: 69%
Barometer: 1016.9 hPa
Clouds: Clear
Visibility: 16 km
2017/07/26 21:53 KWVI 262153Z AUTO 22008KT 10SM CLR 20/14 A3003 RMK AO2 SLP168 T02000139
 
KHAF - Half Moon Bay, California, USA
Distance from station: WNW 50km
Updated: 27/07/2017 08:35
Mostly cloudy
Mostly cloudy
 Wind from W
Wind: W 13 km/h
Temperature: 17°C
Dew Point: 14°C
Humidity: 83%
Barometer: 1016.3 hPa
Clouds: Mostly cloudy
Visibility: 16 km
Cloud details: Mostly cloudy 366 m
2017/07/26 22:35 KHAF 262235Z AUTO 27007KT 10SM BKN012 17/14 A3001 RMK AO2
KHWD - Hayward, California, USA
Distance from station: N 44km
Updated: 27/07/2017 07:54
Clear
Clear
 Wind from WNW
Wind: WNW 19 km/h
Temperature: 24°C
Dew Point: 12°C
Humidity: 47%
Barometer: 1015.9 hPa
Clouds: Clear
Visibility: 16 km
2017/07/26 21:54 KHWD 262154Z 30010KT 10SM CLR 24/12 A3000 RMK AO2 SLP168 T02390122
KLVK - Livermore, California, USA
Distance from station: NNE 51km
Updated: 27/07/2017 07:53
Clear
Clear
 Wind from WNW
Wind: WNW 15 km/h
Temperature: 31°C
Dew Point: 11°C
Humidity: 29%
Barometer: 1014.9 hPa
Clouds: Clear
Visibility: 16 km
2017/07/26 21:53 KLVK 262153Z 29008KT 10SM CLR 31/11 A2997 RMK AO2 SLP144 T03110106